sensor_id;sensor_type;location;lat;lon;timestamp;pressure;altitude;pressure_sealevel;temperature;humidity
20622;BME280;10470;42.670;23.354;2023-01-30T00:00:33;95090.56;;;0.16;100.00
20622;BME280;10470;42.670;23.354;2023-01-30T00:03:20;95087.81;;;0.09;100.00
20622;BME280;10470;42.670;23.354;2023-01-30T00:06:06;95083.56;;;0.05;100.00
20622;BME280;10470;42.670;23.354;2023-01-30T00:08:51;95079.03;;;0.09;100.00
20622;BME280;10470;42.670;23.354;2023-01-30T00:11:37;95079.38;;;0.04;100.00
20622;BME280;10470;42.670;23.354;2023-01-30T00:14:22;95081.75;;;0.16;100.00
20622;BME280;10470;42.670;23.354;2023-01-30T00:17:08;95078.47;;;-0.15;100.00
20622;BME280;10470;42.670;23.354;2023-01-30T00:19:53;95075.84;;;-0.08;100.00
20622;BME280;10470;42.670;23.354;2023-01-30T00:22:38;95080.38;;;-0.15;100.00
20622;BME280;10470;42.670;23.354;2023-01-30T00:25:25;95075.06;;;-0.08;100.00
20622;BME280;10470;42.670;23.354;2023-01-30T00:28:11;95072.44;;;-0.05;100.00
20622;BME280;10470;42.670;23.354;2023-01-30T00:30:56;95074.28;;;-0.12;100.00
20622;BME280;10470;42.670;23.354;2023-01-30T00:33:42;95078.94;;;-0.02;100.00
20622;BME280;10470;42.670;23.354;2023-01-30T00:36:27;95065.78;;;-0.22;100.00
20622;BME280;10470;42.670;23.354;2023-01-30T00:39:13;95067.13;;;-0.46;100.00
20622;BME280;10470;42.670;23.354;2023-01-30T00:41:58;95069.09;;;-0.39;100.00
20622;BME280;10470;42.670;23.354;2023-01-30T00:45:02;95055.47;;;-0.19;100.00
20622;BME280;10470;42.670;23.354;2023-01-30T00:48:06;95066.47;;;-0.32;100.00
20622;BME280;10470;42.670;23.354;2023-01-30T00:50:52;95053.72;;;-0.46;100.00
20622;BME280;10470;42.670;23.354;2023-01-30T00:53:37;95054.66;;;-0.27;100.00
20622;BME280;10470;42.670;23.354;2023-01-30T00:56:23;95060.47;;;-0.18;100.00
20622;BME280;10470;42.670;23.354;2023-01-30T00:59:08;95056.22;;;-0.19;100.00
20622;BME280;10470;42.670;23.354;2023-01-30T01:01:53;95064.22;;;-0.26;100.00
20622;BME280;10470;42.670;23.354;2023-01-30T01:04:39;95068.50;;;-0.18;100.00
20622;BME280;10470;42.670;23.354;2023-01-30T01:07:20;95057.59;;;-0.39;100.00
20622;BME280;10470;42.670;23.354;2023-01-30T01:10:05;95059.19;;;-0.31;100.00
20622;BME280;10470;42.670;23.354;2023-01-30T01:12:51;95061.84;;;-0.35;100.00
20622;BME280;10470;42.670;23.354;2023-01-30T01:15:37;95048.06;;;-0.37;100.00
20622;BME280;10470;42.670;23.354;2023-01-30T01:18:22;95051.03;;;-0.49;100.00
20622;BME280;10470;42.670;23.354;2023-01-30T01:21:08;95046.56;;;-0.34;100.00
20622;BME280;10470;42.670;23.354;2023-01-30T01:23:56;95039.25;;;-0.37;100.00
20622;BME280;10470;42.670;23.354;2023-01-30T01:26:42;95021.97;;;-0.47;100.00
20622;BME280;10470;42.670;23.354;2023-01-30T01:29:26;95028.84;;;-0.50;100.00
20622;BME280;10470;42.670;23.354;2023-01-30T01:32:12;95031.31;;;-0.30;100.00
20622;BME280;10470;42.670;23.354;2023-01-30T01:34:57;95035.81;;;-0.38;100.00
20622;BME280;10470;42.670;23.354;2023-01-30T01:37:43;95029.97;;;-0.51;100.00
20622;BME280;10470;42.670;23.354;2023-01-30T01:40:28;95038.25;;;-0.18;100.00
20622;BME280;10470;42.670;23.354;2023-01-30T01:43:55;95032.34;;;-0.42;100.00
20622;BME280;10470;42.670;23.354;2023-01-30T01:46:47;95031.03;;;-0.18;100.00
20622;BME280;10470;42.670;23.354;2023-01-30T01:49:36;95034.38;;;-0.28;100.00
20622;BME280;10470;42.670;23.354;2023-01-30T01:52:21;95044.34;;;-0.25;100.00
20622;BME280;10470;42.670;23.354;2023-01-30T01:55:08;95038.22;;;-0.26;100.00
20622;BME280;10470;42.670;23.354;2023-01-30T01:57:57;95028.63;;;-0.30;100.00
20622;BME280;10470;42.670;23.354;2023-01-30T02:00:45;95044.06;;;-0.09;100.00
20622;BME280;10470;42.670;23.354;2023-01-30T02:03:35;95049.28;;;-0.27;100.00
20622;BME280;10470;42.670;23.354;2023-01-30T02:06:22;95033.28;;;-0.20;100.00
20622;BME280;10470;42.670;23.354;2023-01-30T02:09:08;95039.66;;;-0.35;100.00
20622;BME280;10470;42.670;23.354;2023-01-30T02:11:56;95038.16;;;-0.33;100.00
20622;BME280;10470;42.670;23.354;2023-01-30T02:14:45;95037.75;;;-0.38;100.00
20622;BME280;10470;42.670;23.354;2023-01-30T02:17:32;95032.81;;;-0.29;100.00
20622;BME280;10470;42.670;23.354;2023-01-30T02:24:17;95035.50;;;-0.29;100.00
20622;BME280;10470;42.670;23.354;2023-01-30T02:27:17;95038.53;;;-0.34;100.00
20622;BME280;10470;42.670;23.354;2023-01-30T02:36:31;95039.00;;;-0.22;100.00
20622;BME280;10470;42.670;23.354;2023-01-30T02:42:56;95028.94;;;-0.39;100.00
20622;BME280;10470;42.670;23.354;2023-01-30T02:48:41;95019.16;;;-0.13;100.00
20622;BME280;10470;42.670;23.354;2023-01-30T02:51:29;95018.97;;;-0.42;100.00
20622;BME280;10470;42.670;23.354;2023-01-30T02:54:16;95012.09;;;-0.39;100.00
20622;BME280;10470;42.670;23.354;2023-01-30T02:57:01;95019.03;;;-0.31;100.00
20622;BME280;10470;42.670;23.354;2023-01-30T02:59:56;95024.97;;;-0.08;100.00
20622;BME280;10470;42.670;23.354;2023-01-30T03:12:15;95025.53;;;-0.32;100.00
20622;BME280;10470;42.670;23.354;2023-01-30T03:15:11;95011.47;;;-0.26;100.00
20622;BME280;10470;42.670;23.354;2023-01-30T03:17:58;95016.00;;;-0.30;100.00
20622;BME280;10470;42.670;23.354;2023-01-30T03:20:36;95011.41;;;-0.29;100.00
20622;BME280;10470;42.670;23.354;2023-01-30T03:23:22;95003.31;;;-0.40;100.00
20622;BME280;10470;42.670;23.354;2023-01-30T03:26:10;95003.31;;;-0.40;100.00
20622;BME280;10470;42.670;23.354;2023-01-30T03:28:59;94991.81;;;-0.44;100.00
20622;BME280;10470;42.670;23.354;2023-01-30T03:31:45;94986.47;;;-0.40;100.00
20622;BME280;10470;42.670;23.354;2023-01-30T03:34:31;94993.00;;;-0.41;100.00
20622;BME280;10470;42.670;23.354;2023-01-30T03:37:16;94984.91;;;-0.49;100.00
20622;BME280;10470;42.670;23.354;2023-01-30T03:40:02;94986.84;;;-0.42;100.00
20622;BME280;10470;42.670;23.354;2023-01-30T03:42:44;94984.50;;;-0.47;100.00
20622;BME280;10470;42.670;23.354;2023-01-30T03:45:30;94988.41;;;-0.41;100.00
20622;BME280;10470;42.670;23.354;2023-01-30T03:48:15;94988.66;;;-0.57;100.00
20622;BME280;10470;42.670;23.354;2023-01-30T03:51:01;94985.19;;;-0.57;100.00
20622;BME280;10470;42.670;23.354;2023-01-30T03:53:46;94989.69;;;-0.69;100.00
20622;BME280;10470;42.670;23.354;2023-01-30T03:56:31;94982.97;;;-0.48;100.00
20622;BME280;10470;42.670;23.354;2023-01-30T03:59:17;94987.16;;;-0.51;100.00
20622;BME280;10470;42.670;23.354;2023-01-30T04:02:02;94977.63;;;-0.52;100.00
20622;BME280;10470;42.670;23.354;2023-01-30T04:04:48;94981.75;;;-0.58;100.00
20622;BME280;10470;42.670;23.354;2023-01-30T04:07:34;94974.06;;;-0.67;100.00
20622;BME280;10470;42.670;23.354;2023-01-30T04:10:19;94975.56;;;-0.69;100.00
20622;BME280;10470;42.670;23.354;2023-01-30T04:13:05;94942.91;;;-0.89;100.00
20622;BME280;10470;42.670;23.354;2023-01-30T04:15:50;94972.97;;;-0.58;100.00
20622;BME280;10470;42.670;23.354;2023-01-30T04:18:36;94974.53;;;-0.54;100.00
20622;BME280;10470;42.670;23.354;2023-01-30T04:21:21;94947.38;;;-0.56;100.00
20622;BME280;10470;42.670;23.354;2023-01-30T04:24:07;94973.44;;;-0.46;100.00
20622;BME280;10470;42.670;23.354;2023-01-30T04:26:52;94967.75;;;-0.40;100.00
20622;BME280;10470;42.670;23.354;2023-01-30T04:29:37;94969.19;;;-0.50;100.00
20622;BME280;10470;42.670;23.354;2023-01-30T04:32:25;94972.22;;;-0.55;100.00
20622;BME280;10470;42.670;23.354;2023-01-30T04:35:10;94970.78;;;-0.46;100.00
20622;BME280;10470;42.670;23.354;2023-01-30T04:37:56;94972.19;;;-0.59;100.00
20622;BME280;10470;42.670;23.354;2023-01-30T04:40:47;94977.72;;;-0.34;100.00
20622;BME280;10470;42.670;23.354;2023-01-30T04:43:32;94971.88;;;-0.50;100.00
20622;BME280;10470;42.670;23.354;2023-01-30T04:46:17;94966.44;;;-0.64;100.00
20622;BME280;10470;42.670;23.354;2023-01-30T04:49:03;94957.63;;;-0.65;100.00
20622;BME280;10470;42.670;23.354;2023-01-30T04:51:48;94961.44;;;-0.66;100.00
20622;BME280;10470;42.670;23.354;2023-01-30T04:54:34;94943.06;;;-0.71;100.00
20622;BME280;10470;42.670;23.354;2023-01-30T04:57:19;94956.28;;;-0.41;100.00
20622;BME280;10470;42.670;23.354;2023-01-30T05:00:05;94947.78;;;-0.50;100.00
20622;BME280;10470;42.670;23.354;2023-01-30T05:02:51;94956.59;;;-0.50;100.00
20622;BME280;10470;42.670;23.354;2023-01-30T05:05:37;94951.47;;;-0.69;100.00
20622;BME280;10470;42.670;23.354;2023-01-30T05:08:22;94947.72;;;-0.57;100.00
20622;BME280;10470;42.670;23.354;2023-01-30T05:11:07;94942.28;;;-0.72;100.00
20622;BME280;10470;42.670;23.354;2023-01-30T05:13:53;94948.47;;;-0.60;100.00
20622;BME280;10470;42.670;23.354;2023-01-30T05:16:39;94947.84;;;-0.47;100.00
20622;BME280;10470;42.670;23.354;2023-01-30T05:19:24;94958.31;;;-0.75;100.00
20622;BME280;10470;42.670;23.354;2023-01-30T05:22:09;94956.75;;;-0.76;100.00
20622;BME280;10470;42.670;23.354;2023-01-30T05:24:55;94957.59;;;-0.69;100.00
20622;BME280;10470;42.670;23.354;2023-01-30T05:27:40;94958.41;;;-0.64;100.00
20622;BME280;10470;42.670;23.354;2023-01-30T05:30:26;94957.59;;;-0.69;100.00
20622;BME280;10470;42.670;23.354;2023-01-30T05:33:11;94956.06;;;-0.70;100.00
20622;BME280;10470;42.670;23.354;2023-01-30T05:35:57;94959.19;;;-0.60;100.00
20622;BME280;10470;42.670;23.354;2023-01-30T05:38:44;94957.66;;;-0.61;100.00
20622;BME280;10470;42.670;23.354;2023-01-30T05:41:30;94959.53;;;-0.66;100.00
20622;BME280;10470;42.670;23.354;2023-01-30T05:44:15;94952.25;;;-0.69;100.00
20622;BME280;10470;42.670;23.354;2023-01-30T05:47:01;94951.13;;;-0.64;100.00
20622;BME280;10470;42.670;23.354;2023-01-30T05:49:46;94960.53;;;-0.81;100.00
20622;BME280;10470;42.670;23.354;2023-01-30T05:52:31;94952.19;;;-0.76;100.00
20622;BME280;10470;42.670;23.354;2023-01-30T05:55:17;94959.47;;;-0.73;100.00
20622;BME280;10470;42.670;23.354;2023-01-30T05:58:02;94961.63;;;-0.41;100.00
20622;BME280;10470;42.670;23.354;2023-01-30T06:00:48;94966.34;;;-0.75;100.00
20622;BME280;10470;42.670;23.354;2023-01-30T06:03:33;94964.88;;;-0.66;100.00
20622;BME280;10470;42.670;23.354;2023-01-30T06:06:20;94963.75;;;-0.64;100.00
20622;BME280;10470;42.670;23.354;2023-01-30T06:09:06;94965.28;;;-0.63;100.00
20622;BME280;10470;42.670;23.354;2023-01-30T06:11:51;94961.09;;;-0.61;100.00
20622;BME280;10470;42.670;23.354;2023-01-30T06:14:37;94960.69;;;-0.67;100.00
20622;BME280;10470;42.670;23.354;2023-01-30T06:17:22;94960.34;;;-0.58;100.00
20622;BME280;10470;42.670;23.354;2023-01-30T06:20:10;94955.41;;;-0.56;100.00
20622;BME280;10470;42.670;23.354;2023-01-30T06:22:56;94957.66;;;-0.61;100.00
20622;BME280;10470;42.670;23.354;2023-01-30T06:25:48;94945.94;;;-0.42;100.00
20622;BME280;10470;42.670;23.354;2023-01-30T06:28:34;94948.47;;;-0.64;100.00
20622;BME280;10470;42.670;23.354;2023-01-30T06:31:20;94951.53;;;-0.62;100.00
20622;BME280;10470;42.670;23.354;2023-01-30T06:34:05;94950.66;;;-0.77;100.00
20622;BME280;10470;42.670;23.354;2023-01-30T06:36:51;94947.22;;;-0.77;100.00
20622;BME280;10470;42.670;23.354;2023-01-30T06:39:36;94933.69;;;-0.95;100.00
20622;BME280;10470;42.670;23.354;2023-01-30T06:42:22;94949.47;;;-0.83;100.00
20622;BME280;10470;42.670;23.354;2023-01-30T06:45:08;94954.41;;;-0.85;100.00
20622;BME280;10470;42.670;23.354;2023-01-30T06:47:54;94955.88;;;-0.91;100.00
20622;BME280;10470;42.670;23.354;2023-01-30T06:50:39;94954.69;;;-0.97;100.00
20622;BME280;10470;42.670;23.354;2023-01-30T06:53:25;94957.94;;;-0.74;100.00
20622;BME280;10470;42.670;23.354;2023-01-30T06:56:14;94933.69;;;-0.95;100.00
20622;BME280;10470;42.670;23.354;2023-01-30T06:58:59;94967.22;;;-0.60;100.00
20622;BME280;10470;42.670;23.354;2023-01-30T07:01:45;94948.63;;;-0.91;100.00
20622;BME280;10470;42.670;23.354;2023-01-30T07:04:30;94962.50;;;-0.78;100.00
20622;BME280;10470;42.670;23.354;2023-01-30T07:07:16;94967.03;;;-0.85;100.00
20622;BME280;10470;42.670;23.354;2023-01-30T07:10:02;94971.63;;;-0.82;100.00
20622;BME280;10470;42.670;23.354;2023-01-30T07:12:48;94953.19;;;-0.91;100.00
20622;BME280;10470;42.670;23.354;2023-01-30T07:15:33;94965.44;;;-0.90;100.00
20622;BME280;10470;42.670;23.354;2023-01-30T07:18:19;94965.22;;;-0.71;100.00
20622;BME280;10470;42.670;23.354;2023-01-30T07:21:04;94975.28;;;-0.57;100.00
20622;BME280;10470;42.670;23.354;2023-01-30T07:23:50;94978.78;;;-0.49;100.00
20622;BME280;10470;42.670;23.354;2023-01-30T07:26:35;94969.44;;;-0.70;100.00
20622;BME280;10470;42.670;23.354;2023-01-30T07:29:21;94950.22;;;-0.82;100.00
20622;BME280;10470;42.670;23.354;2023-01-30T07:32:09;94980.09;;;-0.73;100.00
20622;BME280;10470;42.670;23.354;2023-01-30T07:34:57;94981.50;;;-0.90;100.00
20622;BME280;10470;42.670;23.354;2023-01-30T07:37:47;94993.44;;;-0.80;100.00
20622;BME280;10470;42.670;23.354;2023-01-30T07:40:33;94995.13;;;-0.61;100.00
20622;BME280;10470;42.670;23.354;2023-01-30T07:43:18;94989.72;;;-0.65;100.00
20622;BME280;10470;42.670;23.354;2023-01-30T07:46:03;94994.97;;;-0.79;100.00
20622;BME280;10470;42.670;23.354;2023-01-30T07:48:49;94989.41;;;-0.56;100.00
20622;BME280;10470;42.670;23.354;2023-01-30T07:51:34;94984.44;;;-0.58;100.00
20622;BME280;10470;42.670;23.354;2023-01-30T07:54:20;94985.66;;;-0.48;100.00
20622;BME280;10470;42.670;23.354;2023-01-30T07:57:05;94972.59;;;-0.57;100.00
20622;BME280;10470;42.670;23.354;2023-01-30T07:59:51;94977.28;;;-0.43;100.00
20622;BME280;10470;42.670;23.354;2023-01-30T08:02:36;94970.44;;;-0.37;100.00
20622;BME280;10470;42.670;23.354;2023-01-30T08:05:22;94954.78;;;-0.31;100.00
20622;BME280;10470;42.670;23.354;2023-01-30T08:08:07;94958.56;;;-0.39;100.00
20622;BME280;10470;42.670;23.354;2023-01-30T08:10:53;94962.78;;;-0.38;100.00
20622;BME280;10470;42.670;23.354;2023-01-30T08:13:38;94957.81;;;-0.36;100.00
20622;BME280;10470;42.670;23.354;2023-01-30T08:16:24;94971.13;;;-0.51;100.00
20622;BME280;10470;42.670;23.354;2023-01-30T08:19:09;94958.97;;;-0.41;100.00
20622;BME280;10470;42.670;23.354;2023-01-30T08:21:54;94948.25;;;-0.41;100.00
20622;BME280;10470;42.670;23.354;2023-01-30T08:24:30;94950.25;;;-0.27;100.00
20622;BME280;10470;42.670;23.354;2023-01-30T08:27:15;94954.09;;;-0.21;100.00
20622;BME280;10470;42.670;23.354;2023-01-30T08:30:01;94958.88;;;0.11;100.00
20622;BME280;10470;42.670;23.354;2023-01-30T08:32:47;94952.22;;;-0.20;100.00
20622;BME280;10470;42.670;23.354;2023-01-30T08:35:32;94952.72;;;0.07;100.00
20622;BME280;10470;42.670;23.354;2023-01-30T08:38:18;94926.91;;;-0.27;100.00
20622;BME280;10470;42.670;23.354;2023-01-30T08:41:06;94941.06;;;-0.26;100.00
20622;BME280;10470;42.670;23.354;2023-01-30T08:43:52;94948.03;;;-0.18;100.00
20622;BME280;10470;42.670;23.354;2023-01-30T08:46:38;94943.50;;;-0.03;100.00
20622;BME280;10470;42.670;23.354;2023-01-30T08:49:23;94937.72;;;-0.12;100.00
20622;BME280;10470;42.670;23.354;2023-01-30T08:52:09;94938.84;;;-0.17;100.00
20622;BME280;10470;42.670;23.354;2023-01-30T08:54:54;94940.06;;;-0.04;100.00
20622;BME280;10470;42.670;23.354;2023-01-30T08:57:40;94932.78;;;-0.07;100.00
20622;BME280;10470;42.670;23.354;2023-01-30T09:00:26;94935.47;;;-0.03;100.00
20622;BME280;10470;42.670;23.354;2023-01-30T09:03:13;94932.44;;;0.02;100.00
20622;BME280;10470;42.670;23.354;2023-01-30T09:05:59;94927.03;;;-0.09;100.00
20622;BME280;10470;42.670;23.354;2023-01-30T09:08:44;94929.78;;;0.09;100.00
20622;BME280;10470;42.670;23.354;2023-01-30T09:11:29;94913.97;;;-0.14;100.00
20622;BME280;10470;42.670;23.354;2023-01-30T09:14:15;94926.25;;;-0.13;100.00
20622;BME280;10470;42.670;23.354;2023-01-30T09:17:04;94925.97;;;0.14;100.00
20622;BME280;10470;42.670;23.354;2023-01-30T09:19:49;94919.81;;;0.06;100.00
20622;BME280;10470;42.670;23.354;2023-01-30T09:22:35;94919.03;;;-0.02;100.00
20622;BME280;10470;42.670;23.354;2023-01-30T09:25:21;94917.00;;;-0.19;100.00
20622;BME280;10470;42.670;23.354;2023-01-30T09:28:06;94911.72;;;-0.08;100.00
20622;BME280;10470;42.670;23.354;2023-01-30T09:30:52;94923.25;;;0.03;100.00
20622;BME280;10470;42.670;23.354;2023-01-30T09:33:37;94918.22;;;-0.13;100.00
20622;BME280;10470;42.670;23.354;2023-01-30T09:36:23;94909.06;;;-0.01;100.00
20622;BME280;10470;42.670;23.354;2023-01-30T09:39:08;94914.75;;;-0.13;100.00
20622;BME280;10470;42.670;23.354;2023-01-30T09:45:31;94908.25;;;-0.12;100.00
20622;BME280;10470;42.670;23.354;2023-01-30T09:51:13;94902.88;;;-0.16;100.00
20622;BME280;10470;42.670;23.354;2023-01-30T09:57:08;94894.47;;;-0.18;100.00
20622;BME280;10470;42.670;23.354;2023-01-30T10:05:51;94885.66;;;-0.22;100.00
20622;BME280;10470;42.670;23.354;2023-01-30T10:09:06;94874.97;;;-0.15;100.00
20622;BME280;10470;42.670;23.354;2023-01-30T10:15:24;94861.28;;;0.01;100.00
20622;BME280;10470;42.670;23.354;2023-01-30T10:18:27;94844.44;;;0.01;100.00
20622;BME280;10470;42.670;23.354;2023-01-30T10:21:49;94859.75;;;0.04;100.00
20622;BME280;10470;42.670;23.354;2023-01-30T10:28:19;94850.19;;;0.10;100.00
20622;BME280;10470;42.670;23.354;2023-01-30T10:31:18;94830.22;;;-0.14;100.00
20622;BME280;10470;42.670;23.354;2023-01-30T10:34:09;94834.13;;;0.06;100.00
20622;BME280;10470;42.670;23.354;2023-01-30T10:40:42;94815.75;;;0.05;100.00
20622;BME280;10470;42.670;23.354;2023-01-30T10:43:46;94809.22;;;-0.02;100.00
20622;BME280;10470;42.670;23.354;2023-01-30T10:49:51;94804.22;;;-0.17;100.00
20622;BME280;10470;42.670;23.354;2023-01-30T10:55:47;94780.88;;;-0.17;100.00
20622;BME280;10470;42.670;23.354;2023-01-30T11:01:46;94764.81;;;-0.17;100.00
20622;BME280;10470;42.670;23.354;2023-01-30T11:07:44;94757.25;;;0.32;100.00
20622;BME280;10470;42.670;23.354;2023-01-30T11:10:30;94755.34;;;0.29;100.00
20622;BME280;10470;42.670;23.354;2023-01-30T11:16:07;94751.13;;;0.28;100.00
20622;BME280;10470;42.670;23.354;2023-01-30T11:18:53;94738.13;;;0.48;100.00
20622;BME280;10470;42.670;23.354;2023-01-30T11:21:48;94735.81;;;0.28;100.00
20622;BME280;10470;42.670;23.354;2023-01-30T11:24:43;94722.41;;;0.71;100.00
20622;BME280;10470;42.670;23.354;2023-01-30T11:27:31;94729.31;;;0.33;100.00
20622;BME280;10470;42.670;23.354;2023-01-30T11:30:16;94720.06;;;0.95;100.00
20622;BME280;10470;42.670;23.354;2023-01-30T11:33:11;94714.34;;;0.89;100.00
20622;BME280;10470;42.670;23.354;2023-01-30T11:36:00;94725.31;;;1.34;100.00
20622;BME280;10470;42.670;23.354;2023-01-30T11:41:59;94710.06;;;2.53;100.00
20622;BME280;10470;42.670;23.354;2023-01-30T11:44:54;94704.09;;;2.76;100.00
20622;BME280;10470;42.670;23.354;2023-01-30T11:47:52;94700.47;;;2.52;100.00
20622;BME280;10470;42.670;23.354;2023-01-30T11:50:41;94683.19;;;2.50;100.00
20622;BME280;10470;42.670;23.354;2023-01-30T11:56:32;94674.78;;;3.54;100.00
20622;BME280;10470;42.670;23.354;2023-01-30T11:59:25;94677.47;;;1.92;100.00
20622;BME280;10470;42.670;23.354;2023-01-30T12:02:31;94666.59;;;2.13;100.00
20622;BME280;10470;42.670;23.354;2023-01-30T12:05:25;94661.63;;;2.08;100.00
20622;BME280;10470;42.670;23.354;2023-01-30T12:17:30;94640.13;;;3.25;100.00
20622;BME280;10470;42.670;23.354;2023-01-30T12:26:41;94626.75;;;3.49;100.00
20622;BME280;10470;42.670;23.354;2023-01-30T12:29:32;94630.63;;;3.48;100.00
20622;BME280;10470;42.670;23.354;2023-01-30T12:32:20;94622.38;;;3.32;100.00
20622;BME280;10470;42.670;23.354;2023-01-30T12:35:15;94615.28;;;3.72;100.00
20622;BME280;10470;42.670;23.354;2023-01-30T12:38:13;94606.38;;;4.02;100.00
20622;BME280;10470;42.670;23.354;2023-01-30T12:47:47;94599.81;;;4.27;100.00
20622;BME280;10470;42.670;23.354;2023-01-30T12:53:57;94598.69;;;4.24;100.00
20622;BME280;10470;42.670;23.354;2023-01-30T13:15:03;94580.38;;;3.65;100.00
20622;BME280;10470;42.670;23.354;2023-01-30T13:26:50;94570.16;;;2.60;100.00
20622;BME280;10470;42.670;23.354;2023-01-30T13:29:38;94565.66;;;2.09;100.00
20622;BME280;10470;42.670;23.354;2023-01-30T13:35:24;94557.94;;;3.48;100.00
20622;BME280;10470;42.670;23.354;2023-01-30T13:38:20;94559.06;;;5.24;100.00
20622;BME280;10470;42.670;23.354;2023-01-30T13:41:11;94553.38;;;4.59;100.00
20622;BME280;10470;42.670;23.354;2023-01-30T13:44:16;94554.59;;;4.78;100.00
20622;BME280;10470;42.670;23.354;2023-01-30T13:50:11;94546.56;;;6.16;100.00
20622;BME280;10470;42.670;23.354;2023-01-30T13:53:13;94545.81;;;6.61;100.00
20622;BME280;10470;42.670;23.354;2023-01-30T14:02:27;94548.75;;;6.96;100.00
20622;BME280;10470;42.670;23.354;2023-01-30T14:05:13;94546.69;;;5.43;100.00
20622;BME280;10470;42.670;23.354;2023-01-30T14:08:23;94545.91;;;4.03;100.00
20622;BME280;10470;42.670;23.354;2023-01-30T14:11:32;94539.13;;;3.14;100.00
20622;BME280;10470;42.670;23.354;2023-01-30T14:14:30;94515.78;;;1.63;100.00
20622;BME280;10470;42.670;23.354;2023-01-30T14:17:16;94533.94;;;1.93;100.00
20622;BME280;10470;42.670;23.354;2023-01-30T14:20:23;94538.28;;;1.80;100.00
20622;BME280;10470;42.670;23.354;2023-01-30T14:23:25;94548.69;;;1.74;100.00
20622;BME280;10470;42.670;23.354;2023-01-30T14:26:14;94542.44;;;1.88;100.00
20622;BME280;10470;42.670;23.354;2023-01-30T14:28:59;94505.72;;;1.25;100.00
20622;BME280;10470;42.670;23.354;2023-01-30T14:31:48;94547.06;;;1.84;100.00
20622;BME280;10470;42.670;23.354;2023-01-30T14:46:04;94533.78;;;1.10;100.00
20622;BME280;10470;42.670;23.354;2023-01-30T14:48:54;94528.03;;;1.08;100.00
20622;BME280;10470;42.670;23.354;2023-01-30T14:51:45;94514.78;;;1.42;100.00
20622;BME280;10470;42.670;23.354;2023-01-30T14:54:33;94505.28;;;1.30;100.00
20622;BME280;10470;42.670;23.354;2023-01-30T14:57:24;94510.19;;;1.43;100.00
20622;BME280;10470;42.670;23.354;2023-01-30T15:00:18;94511.97;;;1.04;100.00
20622;BME280;10470;42.670;23.354;2023-01-30T15:03:16;94506.16;;;1.13;100.00
20622;BME280;10470;42.670;23.354;2023-01-30T15:06:03;94520.56;;;0.71;100.00
20622;BME280;10470;42.670;23.354;2023-01-30T15:08:51;94510.59;;;0.75;100.00
20622;BME280;10470;42.670;23.354;2023-01-30T15:11:36;94509.88;;;0.63;100.00
20622;BME280;10470;42.670;23.354;2023-01-30T15:15:08;94500.75;;;0.50;100.00
20622;BME280;10470;42.670;23.354;2023-01-30T15:30:39;94514.25;;;0.21;100.00
20622;BME280;10470;42.670;23.354;2023-01-30T15:33:30;94503.16;;;0.12;100.00
20622;BME280;10470;42.670;23.354;2023-01-30T15:36:33;94510.47;;;0.01;100.00
20622;BME280;10470;42.670;23.354;2023-01-30T15:39:21;94506.25;;;-0.04;100.00
20622;BME280;10470;42.670;23.354;2023-01-30T15:42:13;94517.72;;;0.01;100.00
20622;BME280;10470;42.670;23.354;2023-01-30T15:51:27;94513.91;;;-0.16;100.00
20622;BME280;10470;42.670;23.354;2023-01-30T15:54:17;94499.78;;;-0.24;100.00
20622;BME280;10470;42.670;23.354;2023-01-30T15:57:03;94491.75;;;-0.31;100.00
20622;BME280;10470;42.670;23.354;2023-01-30T15:59:49;94500.56;;;-0.20;100.00
20622;BME280;10470;42.670;23.354;2023-01-30T16:02:35;94505.09;;;0.05;100.00
20622;BME280;10470;42.670;23.354;2023-01-30T16:05:26;94505.50;;;-0.18;100.00
20622;BME280;10470;42.670;23.354;2023-01-30T16:08:20;94497.88;;;-0.27;100.00
20622;BME280;10470;42.670;23.354;2023-01-30T16:11:06;94502.84;;;-0.29;100.00
20622;BME280;10470;42.670;23.354;2023-01-30T16:13:52;94491.00;;;-0.25;100.00
20622;BME280;10470;42.670;23.354;2023-01-30T16:16:43;94492.53;;;-0.20;100.00
20622;BME280;10470;42.670;23.354;2023-01-30T16:19:35;94491.00;;;-0.28;100.00
20622;BME280;10470;42.670;23.354;2023-01-30T16:22:22;94491.03;;;-0.39;100.00
20622;BME280;10470;42.670;23.354;2023-01-30T16:25:15;94480.31;;;-0.46;100.00
20622;BME280;10470;42.670;23.354;2023-01-30T16:28:03;94484.13;;;-0.47;100.00
20622;BME280;10470;42.670;23.354;2023-01-30T16:31:03;94489.84;;;-0.34;100.00
20622;BME280;10470;42.670;23.354;2023-01-30T16:33:50;94478.78;;;-0.40;100.00
20622;BME280;10470;42.670;23.354;2023-01-30T16:36:39;94486.03;;;-0.40;100.00
20622;BME280;10470;42.670;23.354;2023-01-30T16:39:35;94480.28;;;-0.32;100.00
20622;BME280;10470;42.670;23.354;2023-01-30T16:42:23;94482.22;;;-0.47;100.00
20622;BME280;10470;42.670;23.354;2023-01-30T16:48:30;94478.00;;;-0.37;100.00
20622;BME280;10470;42.670;23.354;2023-01-30T16:51:22;94483.75;;;-0.60;100.00
20622;BME280;10470;42.670;23.354;2023-01-30T16:54:17;94486.44;;;-0.49;100.00
20622;BME280;10470;42.670;23.354;2023-01-30T16:56:53;94477.25;;;-0.55;100.00
20622;BME280;10470;42.670;23.354;2023-01-30T16:59:39;94471.91;;;-0.62;100.00
20622;BME280;10470;42.670;23.354;2023-01-30T17:02:49;94473.81;;;-0.59;100.00
20622;BME280;10470;42.670;23.354;2023-01-30T17:05:40;94470.38;;;-0.53;100.00
20622;BME280;10470;42.670;23.354;2023-01-30T17:11:38;94477.25;;;-0.70;100.00
20622;BME280;10470;42.670;23.354;2023-01-30T17:14:27;94481.47;;;-0.79;100.00
20622;BME280;10470;42.670;23.354;2023-01-30T17:17:16;94491.75;;;-0.71;100.00
20622;BME280;10470;42.670;23.354;2023-01-30T17:20:04;94483.75;;;-0.74;100.00
20622;BME280;10470;42.670;23.354;2023-01-30T17:22:50;94478.78;;;-0.79;100.00
20622;BME280;10470;42.670;23.354;2023-01-30T17:25:42;94487.94;;;-0.77;100.00
20622;BME280;10470;42.670;23.354;2023-01-30T17:28:29;94479.16;;;-0.56;100.00